Petersburg, Illinois
Current Conditions -  °F | °C
As of 9:52 PM on Tuesday 27 Jan 2015 (Local Time) from KSPI Reporting Station
Overcast Overcast  
Wind Chill: 25°   Ceiling: 1700
Heat Index: 30°   Visibility: 10mi
Dew Point: 25°   Wind: 5mph
Humidity: 82%   Direction: 120°ESE
Pressure: 30.25"   Gusts: NA
Location:  40.01°N, 89.85°W
Report Text: KSPI 280352Z AUTO 12004KT 10SM OVC017 M01/M04 A3025 RMK AO2 SLP249 T10111039
Loading
Personal Weather Stations






























Interactive Weather Map New forecast layout! Learn more

10-Day Weather Forecast

Advertisements
Track Severe Weather on mobile